createdAt,value
2024-01-19T00:02:59.803Z,68.73
2024-01-19T00:05:46.739Z,68.90
2024-01-19T00:08:35.625Z,68.83
2024-01-19T00:11:22.335Z,68.68
2024-01-19T00:14:09.301Z,68.53
2024-01-19T00:16:57.488Z,68.84
2024-01-19T00:19:44.311Z,68.86
2024-01-19T00:22:30.819Z,68.47
2024-01-19T00:25:17.331Z,68.32
2024-01-19T00:28:05.213Z,68.60
2024-01-19T00:30:52.230Z,68.41
2024-01-19T00:33:39.260Z,68.64
2024-01-19T00:36:26.258Z,68.35
2024-01-19T00:39:13.088Z,68.77
2024-01-19T00:41:59.985Z,68.81
2024-01-19T00:44:46.684Z,68.98
2024-01-19T00:47:35.387Z,68.70
2024-01-19T00:50:22.161Z,68.33
2024-01-19T00:53:08.874Z,68.77
2024-01-19T00:55:55.507Z,68.93
2024-01-19T00:58:43.663Z,68.65
2024-01-19T01:01:30.670Z,69.08
2024-01-19T01:04:17.908Z,69.16
2024-01-19T01:07:04.946Z,69.24
2024-01-19T01:09:52.112Z,69.22
2024-01-19T01:12:40.174Z,69.32
2024-01-19T01:15:27.322Z,69.53
2024-01-19T01:18:14.492Z,69.28
2024-01-19T01:21:02.941Z,69.17
2024-01-19T01:23:49.623Z,68.89
2024-01-19T01:26:36.259Z,68.93
2024-01-19T01:29:24.011Z,69.33
2024-01-19T01:32:10.825Z,68.86
2024-01-19T01:34:57.369Z,68.71
2024-01-19T01:37:44.298Z,68.48
2024-01-19T01:40:31.412Z,68.43
2024-01-19T01:43:26.521Z,68.65
2024-01-19T01:46:13.626Z,68.24
2024-01-19T01:49:01.032Z,68.03
2024-01-19T01:51:48.422Z,67.21
2024-01-19T01:54:35.164Z,67.52
2024-01-19T01:57:24.314Z,66.64
2024-01-19T02:00:14.859Z,66.33
2024-01-19T02:03:03.029Z,66.46
2024-01-19T02:05:50.102Z,66.75
2024-01-19T02:08:37.144Z,66.69
2024-01-19T02:11:23.873Z,66.83
2024-01-19T02:14:11.920Z,66.44
2024-01-19T02:16:58.389Z,66.92
2024-01-19T02:19:45.152Z,67.32
2024-01-19T02:25:58.722Z,67.37
2024-01-19T02:28:45.609Z,67.55
2024-01-19T02:31:32.633Z,67.98
2024-01-19T02:34:19.528Z,67.81
2024-01-19T02:37:06.360Z,67.78
2024-01-19T02:39:52.854Z,67.87
2024-01-19T02:42:39.657Z,67.84
2024-01-19T02:45:26.326Z,67.85
2024-01-19T02:48:14.358Z,67.78
2024-01-19T02:51:01.531Z,67.60
2024-01-19T02:53:48.762Z,67.60
2024-01-19T02:56:35.614Z,68.03
2024-01-19T02:59:22.245Z,68.06
2024-01-19T03:02:09.035Z,68.25
2024-01-19T03:04:55.938Z,68.40
2024-01-19T03:07:42.488Z,68.57
2024-01-19T03:10:29.057Z,68.44
2024-01-19T03:13:16.210Z,67.94
2024-01-19T03:16:07.640Z,67.54
2024-01-19T03:19:01.580Z,67.65
2024-01-19T03:21:48.900Z,67.20
2024-01-19T03:24:37.195Z,66.64
2024-01-19T03:27:23.847Z,66.68
2024-01-19T03:30:11.105Z,66.43
2024-01-19T03:32:57.729Z,66.02
2024-01-19T03:35:45.079Z,66.08
2024-01-19T03:38:32.464Z,65.81
2024-01-19T03:41:18.954Z,65.51
2024-01-19T03:44:05.798Z,65.59
2024-01-19T03:46:52.811Z,65.33
2024-01-19T03:49:40.691Z,65.65
2024-01-19T03:52:27.249Z,65.99
2024-01-19T03:55:15.817Z,65.93
2024-01-19T03:58:05.117Z,66.23
2024-01-19T04:00:52.549Z,66.30
2024-01-19T04:03:39.504Z,66.58
2024-01-19T04:06:31.126Z,66.48
2024-01-19T04:09:18.256Z,66.41
2024-01-19T04:12:15.872Z,66.24
2024-01-19T04:15:02.498Z,66.26
2024-01-19T04:17:49.466Z,66.47
2024-01-19T04:20:36.753Z,66.49
2024-01-19T04:23:23.589Z,66.24
2024-01-19T04:26:10.483Z,66.33
2024-01-19T04:28:56.938Z,66.53
2024-01-19T04:31:43.570Z,66.48
2024-01-19T04:34:30.317Z,66.44
2024-01-19T04:37:16.903Z,66.23
2024-01-19T04:40:03.784Z,66.25
2024-01-19T04:42:50.488Z,66.33
2024-01-19T04:45:37.085Z,66.34
2024-01-19T04:48:24.171Z,66.49
2024-01-19T04:51:11.228Z,66.57
2024-01-19T04:54:00.003Z,66.36
2024-01-19T04:56:46.827Z,66.55
2024-01-19T04:59:33.491Z,66.30
2024-01-19T05:02:20.549Z,66.49
2024-01-19T05:05:07.490Z,66.37
2024-01-19T05:07:54.355Z,66.26
2024-01-19T05:10:41.232Z,66.60
2024-01-19T05:13:28.083Z,66.48
2024-01-19T05:16:14.988Z,66.40
2024-01-19T05:19:01.930Z,66.45
2024-01-19T05:21:48.851Z,66.44
2024-01-19T05:24:35.432Z,66.44
2024-01-19T05:27:22.333Z,66.30
2024-01-19T05:30:10.259Z,66.41
2024-01-19T05:32:57.392Z,66.22
2024-01-19T05:35:46.978Z,66.42
2024-01-19T05:38:34.019Z,66.36
2024-01-19T05:41:21.760Z,66.26
2024-01-19T05:44:08.592Z,65.82
2024-01-19T05:46:55.864Z,66.36
2024-01-19T05:49:42.786Z,65.94
2024-01-19T05:52:29.806Z,65.39
2024-01-19T05:55:16.483Z,65.17
2024-01-19T05:58:04.660Z,65.09
2024-01-19T06:00:51.496Z,65.10
2024-01-19T06:03:39.346Z,64.79
2024-01-19T06:06:27.005Z,64.97
2024-01-19T06:09:14.322Z,63.99
2024-01-19T06:12:01.107Z,63.97
2024-01-19T06:14:47.707Z,63.79
2024-01-19T06:17:34.176Z,63.70
2024-01-19T06:20:21.693Z,63.59
2024-01-19T06:23:09.763Z,63.52
2024-01-19T06:25:56.617Z,63.62
2024-01-19T06:28:43.647Z,63.40
2024-01-19T06:31:30.357Z,63.52
2024-01-19T06:34:17.252Z,63.47
2024-01-19T06:37:03.958Z,63.86
2024-01-19T06:39:50.904Z,64.15
2024-01-19T06:42:38.606Z,64.21
2024-01-19T06:45:25.451Z,63.98
2024-01-19T06:48:12.784Z,63.73
2024-01-19T06:50:59.945Z,63.43
2024-01-19T06:53:46.899Z,63.55
2024-01-19T06:56:34.069Z,63.34
2024-01-19T06:59:21.354Z,63.14
2024-01-19T07:02:08.831Z,63.37
2024-01-19T07:04:55.376Z,63.10
2024-01-19T07:07:45.112Z,63.42
2024-01-19T07:10:31.852Z,63.38
2024-01-19T07:13:18.244Z,63.27
2024-01-19T07:16:06.678Z,63.05
2024-01-19T07:18:53.597Z,63.05
2024-01-19T07:21:41.552Z,62.81
2024-01-19T07:24:31.299Z,62.70
2024-01-19T07:27:18.186Z,63.04
2024-01-19T07:30:06.480Z,63.36
2024-01-19T07:33:01.670Z,62.74
2024-01-19T07:35:54.222Z,62.45
2024-01-19T07:38:41.214Z,62.49
2024-01-19T07:41:28.120Z,62.21
2024-01-19T07:44:17.668Z,61.77
2024-01-19T07:47:06.848Z,61.99
2024-01-19T07:49:54.031Z,62.23
2024-01-19T07:52:41.056Z,62.19
2024-01-19T07:55:37.022Z,62.24
2024-01-19T07:58:26.663Z,61.92
2024-01-19T08:01:13.535Z,61.96
2024-01-19T08:04:00.651Z,61.97
2024-01-19T08:06:47.843Z,62.55
2024-01-19T08:09:35.179Z,62.49
2024-01-19T08:12:22.070Z,62.07
2024-01-19T08:15:09.823Z,62.05
2024-01-19T08:17:57.462Z,62.28
2024-01-19T08:20:44.461Z,62.41
2024-01-19T08:23:35.191Z,62.33
2024-01-19T08:26:22.299Z,62.37
2024-01-19T08:29:09.199Z,62.59
2024-01-19T08:31:56.697Z,62.23
2024-01-19T08:34:44.606Z,62.20
2024-01-19T08:37:31.563Z,62.49
2024-01-19T08:40:18.852Z,62.43
2024-01-19T08:43:05.802Z,62.30
2024-01-19T08:45:52.649Z,62.03
2024-01-19T08:48:44.154Z,62.33
2024-01-19T08:51:31.204Z,61.66
2024-01-19T08:54:18.693Z,62.10
2024-01-19T08:57:06.275Z,62.19
2024-01-19T08:59:53.827Z,62.08
2024-01-19T09:02:46.918Z,61.95
2024-01-19T09:05:41.435Z,61.78
2024-01-19T09:08:28.629Z,61.41
2024-01-19T09:11:15.384Z,61.71
2024-01-19T09:14:03.657Z,61.34
2024-01-19T09:16:50.631Z,61.49
2024-01-19T09:19:39.953Z,61.51
2024-01-19T09:22:28.322Z,61.13
2024-01-19T09:25:15.853Z,60.58
2024-01-19T09:28:03.725Z,60.81
2024-01-19T09:30:50.993Z,61.20
2024-01-19T09:33:37.932Z,61.07
2024-01-19T09:36:25.081Z,60.48
2024-01-19T09:39:12.366Z,60.99
2024-01-19T09:42:09.015Z,60.52
2024-01-19T09:45:06.124Z,60.70
2024-01-19T09:48:05.896Z,60.70
2024-01-19T09:50:56.732Z,60.20
2024-01-19T09:53:50.064Z,60.68
2024-01-19T09:56:38.501Z,60.59
2024-01-19T09:59:26.334Z,60.34
2024-01-19T10:02:16.606Z,60.39
2024-01-19T10:05:03.882Z,60.81
2024-01-19T10:07:56.864Z,60.43
2024-01-19T10:10:45.037Z,60.29
2024-01-19T10:13:31.868Z,60.25
2024-01-19T10:16:18.531Z,60.58
2024-01-19T10:19:06.002Z,60.47
2024-01-19T10:21:53.741Z,60.34
2024-01-19T10:24:40.263Z,60.21
2024-01-19T10:27:51.692Z,60.14
2024-01-19T10:30:38.667Z,60.17
2024-01-19T10:33:25.464Z,60.78
2024-01-19T10:36:12.596Z,60.61
2024-01-19T10:39:15.911Z,60.38
2024-01-19T10:42:08.526Z,60.45
2024-01-19T10:44:55.421Z,60.41
2024-01-19T10:47:44.241Z,60.37
2024-01-19T10:50:32.249Z,60.14
2024-01-19T10:53:19.069Z,60.10
2024-01-19T10:56:05.727Z,60.44
2024-01-19T10:58:53.020Z,59.93
2024-01-19T11:01:40.339Z,60.23
2024-01-19T11:04:27.792Z,60.42
2024-01-19T11:07:14.940Z,60.50
2024-01-19T11:10:01.673Z,60.52
2024-01-19T11:12:58.161Z,60.26
2024-01-19T11:15:52.643Z,60.27
2024-01-19T11:18:39.928Z,60.23
2024-01-19T11:21:27.369Z,60.04
2024-01-19T11:24:16.876Z,60.27
2024-01-19T11:27:24.481Z,59.90
2024-01-19T11:31:06.524Z,59.61
2024-01-19T11:33:54.550Z,60.14
2024-01-19T11:36:50.549Z,59.83
2024-01-19T11:39:45.216Z,59.59
2024-01-19T11:42:35.036Z,59.28
2024-01-19T11:45:28.026Z,59.34
2024-01-19T11:48:41.414Z,59.32
2024-01-19T11:51:33.610Z,59.35
2024-01-19T11:54:27.240Z,59.59
2024-01-19T11:57:22.228Z,59.58
2024-01-19T12:00:09.673Z,59.37
2024-01-19T12:02:57.239Z,59.37
2024-01-19T12:05:46.137Z,59.57
2024-01-19T12:08:34.234Z,59.32
2024-01-19T12:11:22.372Z,59.46
2024-01-19T12:14:14.069Z,59.56
2024-01-19T12:17:01.057Z,59.11
2024-01-19T12:19:53.523Z,58.93
2024-01-19T12:22:40.254Z,58.90
2024-01-19T12:25:27.678Z,59.05
2024-01-19T12:28:16.803Z,59.26
2024-01-19T12:31:04.145Z,59.35
2024-01-19T12:33:51.136Z,59.01
2024-01-19T12:36:37.652Z,58.88
2024-01-19T12:39:24.581Z,59.14
2024-01-19T12:42:11.355Z,58.99
2024-01-19T12:45:00.458Z,58.76
2024-01-19T12:47:48.995Z,59.18
2024-01-19T12:50:36.225Z,59.05
2024-01-19T12:53:23.107Z,59.04
2024-01-19T12:56:27.309Z,59.17
2024-01-19T12:59:17.250Z,59.32
2024-01-19T13:02:04.402Z,59.56
2024-01-19T13:04:51.376Z,60.59
2024-01-19T13:07:38.344Z,63.07
2024-01-19T13:10:25.179Z,61.64
2024-01-19T13:13:18.421Z,60.54
2024-01-19T13:16:07.050Z,60.30
2024-01-19T13:19:11.794Z,60.13
2024-01-19T13:22:05.666Z,60.16
2024-01-19T13:24:53.944Z,60.46
2024-01-19T13:27:40.833Z,60.50
2024-01-19T13:30:31.035Z,60.47
2024-01-19T13:33:18.095Z,60.46
2024-01-19T13:36:06.081Z,60.37
2024-01-19T13:38:52.889Z,60.36
2024-01-19T13:41:39.734Z,60.87
2024-01-19T13:44:27.048Z,60.70
2024-01-19T13:47:13.805Z,60.65
2024-01-19T13:50:02.885Z,60.71
2024-01-19T13:52:50.282Z,60.41
2024-01-19T13:55:37.163Z,60.68
2024-01-19T13:58:23.899Z,60.42
2024-01-19T14:01:11.798Z,60.77
2024-01-19T14:03:58.777Z,60.94
2024-01-19T14:06:46.771Z,60.77
2024-01-19T14:09:33.861Z,60.72
2024-01-19T14:12:20.846Z,60.30
2024-01-19T14:15:09.120Z,60.84
2024-01-19T14:17:56.437Z,60.92
2024-01-19T14:20:46.849Z,60.78
2024-01-19T14:23:34.219Z,60.56
2024-01-19T14:26:21.703Z,60.87
2024-01-19T14:29:11.624Z,60.67
2024-01-19T14:32:00.152Z,60.98
2024-01-19T14:34:53.385Z,60.71
2024-01-19T14:37:43.527Z,60.93
2024-01-19T14:40:30.510Z,60.85
2024-01-19T14:43:17.356Z,60.84
2024-01-19T14:46:04.641Z,61.05
2024-01-19T14:48:52.224Z,61.13
2024-01-19T14:51:39.730Z,61.23
2024-01-19T14:54:27.944Z,61.00
2024-01-19T14:57:14.790Z,61.22
2024-01-19T15:00:02.644Z,61.57
2024-01-19T15:02:50.063Z,61.33
2024-01-19T15:05:36.879Z,61.67
2024-01-19T15:08:23.857Z,61.77
2024-01-19T15:11:10.858Z,61.75
2024-01-19T15:13:57.747Z,61.95
2024-01-19T15:16:44.853Z,62.15
2024-01-19T15:19:31.833Z,62.35
2024-01-19T15:22:18.366Z,62.52
2024-01-19T15:25:08.693Z,62.41
2024-01-19T15:27:55.189Z,62.77
2024-01-19T15:30:44.027Z,62.92
2024-01-19T15:33:31.883Z,63.01
2024-01-19T15:36:20.175Z,63.02
2024-01-19T15:39:08.177Z,63.25
2024-01-19T15:41:55.336Z,63.07
2024-01-19T15:44:43.287Z,63.09
2024-01-19T15:47:32.745Z,62.67
2024-01-19T15:50:19.719Z,63.15
2024-01-19T15:53:09.309Z,63.23
2024-01-19T15:55:56.339Z,62.97
2024-01-19T15:58:45.861Z,62.89
2024-01-19T16:01:33.460Z,62.70
2024-01-19T16:04:20.569Z,62.77
2024-01-19T16:07:07.612Z,63.02
2024-01-19T16:09:54.704Z,63.17
2024-01-19T16:12:41.384Z,62.71
2024-01-19T16:15:28.149Z,63.37
2024-01-19T16:18:16.491Z,62.76
2024-01-19T16:21:04.977Z,63.11
2024-01-19T16:23:52.136Z,62.94
2024-01-19T16:26:44.160Z,62.75
2024-01-19T16:29:31.463Z,62.95
2024-01-19T16:32:18.439Z,63.15
2024-01-19T16:35:06.157Z,63.12
2024-01-19T16:37:56.703Z,63.43
2024-01-19T16:40:43.715Z,63.14
2024-01-19T16:43:30.738Z,63.50
2024-01-19T16:46:20.659Z,63.26
2024-01-19T16:49:07.617Z,63.15
2024-01-19T16:51:54.070Z,63.19
2024-01-19T16:54:43.464Z,62.97
2024-01-19T16:57:31.107Z,62.41
2024-01-19T17:00:19.211Z,62.63
2024-01-19T17:03:07.049Z,62.39
2024-01-19T17:05:54.103Z,62.55
2024-01-19T17:08:45.275Z,61.76
2024-01-19T17:11:32.551Z,61.55
2024-01-19T17:14:19.119Z,61.95
2024-01-19T17:17:06.380Z,62.41
2024-01-19T17:19:53.375Z,62.26
2024-01-19T17:22:40.445Z,62.04
2024-01-19T17:25:27.346Z,61.91
2024-01-19T17:28:15.471Z,62.21
2024-01-19T17:31:02.254Z,61.90
2024-01-19T17:34:01.355Z,62.19
2024-01-19T17:36:55.996Z,61.93
2024-01-19T17:39:45.004Z,62.15
2024-01-19T17:42:32.081Z,62.10
2024-01-19T17:45:22.424Z,62.03
2024-01-19T17:48:10.895Z,62.19
2024-01-19T17:50:57.661Z,62.13
2024-01-19T17:53:44.441Z,62.07
2024-01-19T17:56:32.630Z,62.41
2024-01-19T17:59:19.791Z,62.44
2024-01-19T18:02:08.206Z,62.44
2024-01-19T18:04:57.867Z,62.30
2024-01-19T18:07:44.825Z,62.09
2024-01-19T18:10:32.011Z,62.14
2024-01-19T18:13:19.454Z,61.92
2024-01-19T18:16:07.814Z,62.17
2024-01-19T18:18:56.350Z,61.91
2024-01-19T18:21:44.325Z,61.64
2024-01-19T18:24:32.946Z,61.68
2024-01-19T18:27:21.357Z,61.69
2024-01-19T18:30:09.702Z,61.62
2024-01-19T18:32:57.047Z,61.20
2024-01-19T18:35:44.677Z,61.38
2024-01-19T18:38:32.573Z,61.58
2024-01-19T18:41:19.764Z,61.32
2024-01-19T18:44:07.029Z,61.22
2024-01-19T18:46:54.508Z,61.55
2024-01-19T18:49:41.702Z,61.30
2024-01-19T18:52:28.701Z,61.49
2024-01-19T18:55:15.928Z,61.25
2024-01-19T18:58:06.670Z,61.30
2024-01-19T19:00:55.289Z,61.27
2024-01-19T19:03:43.524Z,61.65
2024-01-19T19:06:31.082Z,61.62
2024-01-19T19:09:17.825Z,61.69
2024-01-19T19:12:05.931Z,61.64
2024-01-19T19:14:56.504Z,61.49
2024-01-19T19:17:43.299Z,61.57
2024-01-19T19:20:31.265Z,61.87
2024-01-19T19:23:18.129Z,62.31
2024-01-19T19:26:16.800Z,61.92
2024-01-19T19:29:04.119Z,61.98
2024-01-19T19:31:52.041Z,62.08
2024-01-19T19:34:40.248Z,62.31
2024-01-19T19:37:27.393Z,62.18
2024-01-19T19:40:14.050Z,62.19
2024-01-19T19:43:02.639Z,62.04
2024-01-19T19:45:51.765Z,62.23
2024-01-19T19:48:40.066Z,61.72
2024-01-19T19:51:28.386Z,62.25
2024-01-19T19:54:15.208Z,61.96
2024-01-19T19:57:03.281Z,62.16
2024-01-19T19:59:51.191Z,62.50
2024-01-19T20:02:38.042Z,62.20
2024-01-19T20:05:26.476Z,62.42
2024-01-19T20:08:13.272Z,62.29
2024-01-19T20:11:00.309Z,62.32
2024-01-19T20:13:47.243Z,62.27
2024-01-19T20:16:35.277Z,62.13
2024-01-19T20:19:25.692Z,62.19
2024-01-19T20:22:12.751Z,62.23
2024-01-19T20:25:00.681Z,62.25
2024-01-19T20:27:47.623Z,62.33
2024-01-19T20:30:34.351Z,62.26
2024-01-19T20:33:21.240Z,62.05
2024-01-19T20:36:08.611Z,62.29
2024-01-19T20:38:55.853Z,62.57
2024-01-19T20:41:44.496Z,62.10
2024-01-19T20:44:31.498Z,62.10
2024-01-19T20:47:18.293Z,62.49
2024-01-19T20:50:05.953Z,62.15
2024-01-19T20:52:52.488Z,62.07
2024-01-19T20:55:40.181Z,62.13
2024-01-19T20:58:28.621Z,61.92
2024-01-19T21:01:15.156Z,62.17
2024-01-19T21:04:02.811Z,62.06
2024-01-19T21:06:49.414Z,61.92
2024-01-19T21:09:36.303Z,62.12
2024-01-19T21:12:27.264Z,61.70
2024-01-19T21:15:14.750Z,61.61
2024-01-19T21:18:01.670Z,61.93
2024-01-19T21:20:49.126Z,61.47
2024-01-19T21:23:36.006Z,61.86
2024-01-19T21:26:25.410Z,61.89
2024-01-19T21:29:12.729Z,62.27
2024-01-19T21:31:59.899Z,62.16
2024-01-19T21:34:47.054Z,62.19
2024-01-19T21:37:34.021Z,62.44
2024-01-19T21:40:21.541Z,62.52
2024-01-19T21:43:08.720Z,62.46
2024-01-19T21:45:56.042Z,62.04
2024-01-19T21:48:42.936Z,61.84
2024-01-19T21:51:30.283Z,61.63
2024-01-19T21:54:17.776Z,61.88
2024-01-19T21:57:07.565Z,61.95
2024-01-19T21:59:57.541Z,61.74
2024-01-19T22:02:47.964Z,61.93
2024-01-19T22:05:35.645Z,62.13
2024-01-19T22:08:25.110Z,61.94
2024-01-19T22:11:14.334Z,61.66
2024-01-19T22:14:01.354Z,61.95
2024-01-19T22:16:48.020Z,62.10
2024-01-19T22:19:35.109Z,62.12
2024-01-19T22:22:21.809Z,62.13
2024-01-19T22:25:08.563Z,62.03
2024-01-19T22:27:55.427Z,61.80
2024-01-19T22:30:42.833Z,61.95
2024-01-19T22:33:30.517Z,61.67
2024-01-19T22:36:19.600Z,61.75
2024-01-19T22:39:07.598Z,61.71
2024-01-19T22:42:09.711Z,61.57
2024-01-19T22:44:56.746Z,61.76
2024-01-19T22:47:43.766Z,61.72
2024-01-19T22:50:30.354Z,61.93
2024-01-19T22:53:17.363Z,61.72
2024-01-19T22:56:04.855Z,61.94
2024-01-19T22:58:52.083Z,61.71
2024-01-19T23:01:40.738Z,61.92
2024-01-19T23:04:27.368Z,61.79
2024-01-19T23:07:14.387Z,61.75
2024-01-19T23:10:01.296Z,61.91
2024-01-19T23:12:49.472Z,61.85
2024-01-19T23:15:36.184Z,62.13
2024-01-19T23:18:23.120Z,62.02
2024-01-19T23:21:10.828Z,61.72
2024-01-19T23:23:58.000Z,61.73
2024-01-19T23:26:45.383Z,61.76
2024-01-19T23:29:32.602Z,62.06
2024-01-19T23:32:19.501Z,61.71
2024-01-19T23:35:08.426Z,62.10
2024-01-19T23:37:55.883Z,61.92
2024-01-19T23:40:42.992Z,62.13
2024-01-19T23:43:30.336Z,61.57
2024-01-19T23:46:17.545Z,61.97
2024-01-19T23:49:04.209Z,62.10
2024-01-19T23:51:53.474Z,61.94
2024-01-19T23:54:40.427Z,62.01
2024-01-19T23:57:27.264Z,61.96
